createdAt,value
2023-02-17T00:01:45.455Z,15.43
2023-02-17T00:04:27.826Z,15.37
2023-02-17T00:07:16.518Z,15.40
2023-02-17T00:09:58.729Z,15.42
2023-02-17T00:12:47.487Z,15.44
2023-02-17T00:15:29.943Z,15.36
2023-02-17T00:18:18.498Z,15.31
2023-02-17T00:21:00.781Z,15.34
2023-02-17T00:23:49.513Z,15.35
2023-02-17T00:26:31.735Z,15.39
2023-02-17T00:29:14.574Z,15.37
2023-02-17T00:32:03.948Z,15.39
2023-02-17T00:34:46.517Z,15.34
2023-02-17T00:37:34.787Z,15.31
2023-02-17T00:40:17.511Z,15.33
2023-02-17T00:43:05.853Z,15.30
2023-02-17T00:45:48.511Z,15.23
2023-02-17T00:48:44.339Z,15.24
2023-02-17T00:51:33.530Z,15.25
2023-02-17T00:54:15.985Z,15.17
2023-02-17T00:57:05.528Z,15.18
2023-02-17T00:59:47.737Z,15.18
2023-02-17T01:02:36.578Z,15.17
2023-02-17T01:05:18.829Z,15.15
2023-02-17T01:08:07.534Z,15.14
2023-02-17T01:10:51.769Z,15.16
2023-02-17T01:13:40.548Z,15.13
2023-02-17T01:16:36.700Z,15.17
2023-02-17T01:19:27.508Z,15.17
2023-02-17T01:22:09.758Z,15.09
2023-02-17T01:24:58.562Z,15.09
2023-02-17T01:27:42.831Z,15.13
2023-02-17T01:30:31.557Z,15.23
2023-02-17T01:33:13.842Z,15.28
2023-02-17T01:36:02.614Z,15.19
2023-02-17T01:38:47.479Z,15.28
2023-02-17T01:41:36.517Z,15.35
2023-02-17T01:44:28.842Z,15.38
2023-02-17T01:47:21.442Z,15.47
2023-02-17T01:50:03.893Z,15.43
2023-02-17T01:52:53.594Z,15.43
2023-02-17T01:55:36.846Z,15.53
2023-02-17T01:58:29.444Z,15.47
2023-02-17T02:01:13.813Z,15.40
2023-02-17T02:04:02.535Z,15.40
2023-02-17T02:06:49.859Z,15.43
2023-02-17T02:09:47.525Z,15.36
2023-02-17T02:12:40.747Z,15.32
2023-02-17T02:15:32.550Z,15.24
2023-02-17T02:18:37.761Z,15.30
2023-02-17T02:22:10.445Z,15.35
2023-02-17T02:25:20.763Z,15.38
2023-02-17T02:28:30.517Z,15.38
2023-02-17T02:31:51.479Z,15.47
2023-02-17T02:34:46.717Z,15.55
2023-02-17T02:37:45.430Z,15.63
2023-02-17T02:40:34.123Z,15.69
2023-02-17T02:43:22.433Z,15.80
2023-02-17T02:46:05.109Z,15.94
2023-02-17T02:48:55.504Z,15.98
2023-02-17T02:52:02.766Z,16.09
2023-02-17T02:55:21.499Z,16.18
2023-02-17T02:58:16.782Z,16.47
2023-02-17T03:01:13.546Z,16.55
2023-02-17T03:04:46.733Z,16.61
2023-02-17T03:07:38.537Z,16.76
2023-02-17T03:10:28.862Z,16.97
2023-02-17T03:13:11.450Z,17.14
2023-02-17T03:16:01.731Z,17.15
2023-02-17T03:18:44.501Z,17.29
2023-02-17T03:21:42.735Z,17.41
2023-02-17T03:24:25.516Z,17.47
2023-02-17T03:27:13.807Z,17.70
2023-02-17T03:29:57.536Z,17.73
2023-02-17T03:32:48.184Z,17.85
2023-02-17T03:35:31.757Z,18.08
2023-02-17T03:38:19.817Z,18.14
2023-02-17T03:41:02.447Z,18.35
2023-02-17T03:43:51.570Z,18.41
2023-02-17T03:46:33.815Z,18.60
2023-02-17T03:49:28.488Z,18.93
2023-02-17T03:52:18.478Z,19.04
2023-02-17T03:55:00.760Z,19.23
2023-02-17T03:57:49.477Z,19.45
2023-02-17T04:00:38.433Z,19.41
2023-02-17T04:03:26.799Z,19.58
2023-02-17T04:06:09.475Z,19.61
2023-02-17T04:08:58.518Z,19.73
2023-02-17T04:11:40.758Z,19.79
2023-02-17T04:14:29.468Z,19.78
2023-02-17T04:17:18.457Z,20.13
2023-02-17T04:20:07.688Z,20.39
2023-02-17T04:22:50.523Z,20.51
2023-02-17T04:25:34.801Z,20.63
2023-02-17T04:28:26.416Z,20.62
2023-02-17T04:31:08.922Z,20.70
2023-02-17T04:33:57.468Z,21.00
2023-02-17T04:36:46.353Z,21.22
2023-02-17T04:39:35.425Z,21.50
2023-02-17T04:42:24.505Z,21.61
2023-02-17T04:45:06.961Z,21.65
2023-02-17T04:47:55.408Z,21.64
2023-02-17T04:50:50.354Z,22.06
2023-02-17T04:53:39.412Z,21.99
2023-02-17T04:56:21.700Z,22.10
2023-02-17T04:59:10.478Z,22.23
2023-02-17T05:01:52.718Z,22.68
2023-02-17T05:04:41.524Z,22.88
2023-02-17T05:07:23.698Z,23.54
2023-02-17T05:10:12.510Z,23.52
2023-02-17T05:12:54.831Z,23.42
2023-02-17T05:15:43.496Z,23.42
2023-02-17T05:18:25.831Z,23.31
2023-02-17T05:21:14.485Z,23.29
2023-02-17T05:23:56.956Z,23.42
2023-02-17T05:26:45.420Z,23.86
2023-02-17T05:29:27.793Z,23.84
2023-02-17T05:32:16.469Z,23.97
2023-02-17T05:34:58.785Z,23.63
2023-02-17T05:37:47.506Z,23.92
2023-02-17T05:40:29.803Z,23.93
2023-02-17T05:43:18.429Z,24.05
2023-02-17T05:46:00.735Z,24.20
2023-02-17T05:48:49.586Z,24.13
2023-02-17T05:51:38.936Z,24.40
2023-02-17T05:54:21.511Z,24.28
2023-02-17T05:57:09.712Z,24.40
2023-02-17T05:59:52.452Z,24.43
2023-02-17T06:02:42.055Z,24.69
2023-02-17T06:05:25.546Z,24.71
2023-02-17T06:08:14.824Z,24.89
2023-02-17T06:10:57.489Z,24.85
2023-02-17T06:13:46.916Z,25.05
2023-02-17T06:16:28.462Z,24.93
2023-02-17T06:19:10.634Z,24.94
2023-02-17T06:21:59.718Z,25.10
2023-02-17T06:24:47.848Z,25.17
2023-02-17T06:27:30.473Z,25.14
2023-02-17T06:30:19.785Z,24.78
2023-02-17T06:33:02.398Z,25.02
2023-02-17T06:35:55.971Z,25.11
2023-02-17T06:38:38.751Z,25.52
2023-02-17T06:41:26.738Z,25.53
2023-02-17T06:44:09.558Z,25.55
2023-02-17T06:46:57.809Z,25.74
2023-02-17T06:49:53.482Z,26.03
2023-02-17T06:52:35.951Z,26.13
2023-02-17T06:55:24.519Z,25.87
2023-02-17T06:58:06.868Z,26.01
2023-02-17T07:00:55.452Z,25.85
2023-02-17T07:03:43.747Z,26.00
2023-02-17T07:06:26.875Z,26.04
2023-02-17T07:09:15.120Z,25.84
2023-02-17T07:11:58.525Z,25.96
2023-02-17T07:14:47.851Z,25.85
2023-02-17T07:17:29.481Z,26.08
2023-02-17T07:20:18.819Z,26.23
2023-02-17T07:23:00.471Z,26.32
2023-02-17T07:25:42.848Z,26.43
2023-02-17T07:28:32.582Z,26.48
2023-02-17T07:31:17.156Z,26.46
2023-02-17T07:34:06.537Z,26.57
2023-02-17T07:36:54.769Z,26.68
2023-02-17T07:39:36.479Z,26.57
2023-02-17T07:42:24.824Z,26.55
2023-02-17T07:45:06.496Z,26.57
2023-02-17T07:47:54.798Z,26.66
2023-02-17T07:50:43.505Z,26.71
2023-02-17T07:53:25.743Z,26.75
2023-02-17T07:56:16.451Z,26.66
2023-02-17T07:58:58.783Z,26.52
2023-02-17T08:01:47.480Z,26.53
2023-02-17T08:04:29.799Z,26.56
2023-02-17T08:07:18.507Z,26.73
2023-02-17T08:10:19.266Z,26.89
2023-02-17T08:13:26.504Z,26.76
2023-02-17T08:16:08.999Z,26.74
2023-02-17T08:18:58.507Z,26.80
2023-02-17T08:21:40.804Z,26.82
2023-02-17T08:24:29.590Z,26.74
2023-02-17T08:27:11.754Z,26.65
2023-02-17T08:30:00.662Z,26.70
2023-02-17T08:32:42.708Z,26.70
2023-02-17T08:35:31.404Z,26.41
2023-02-17T08:38:20.534Z,26.40
2023-02-17T08:41:02.738Z,26.38
2023-02-17T08:43:51.397Z,26.27
2023-02-17T08:46:34.129Z,26.31
2023-02-17T08:49:23.549Z,26.40
2023-02-17T08:52:12.778Z,26.50
2023-02-17T08:54:55.437Z,26.45
2023-02-17T08:57:37.624Z,26.53
2023-02-17T09:00:27.568Z,26.51
2023-02-17T09:03:15.822Z,26.51
2023-02-17T09:06:01.669Z,26.53
2023-02-17T09:08:51.810Z,26.41
2023-02-17T09:11:33.520Z,26.37
2023-02-17T09:14:25.035Z,26.32
2023-02-17T09:17:07.482Z,26.38
2023-02-17T09:19:49.832Z,26.36
2023-02-17T09:22:38.466Z,26.21
2023-02-17T09:25:20.871Z,26.09
2023-02-17T09:28:09.469Z,26.13
2023-02-17T09:30:58.532Z,26.17
2023-02-17T09:33:41.058Z,26.17
2023-02-17T09:36:34.485Z,26.14
2023-02-17T09:39:17.981Z,25.97
2023-02-17T09:42:06.413Z,25.95
2023-02-17T09:44:53.473Z,26.01
2023-02-17T09:48:02.417Z,25.92
2023-02-17T09:51:19.582Z,25.84
2023-02-17T09:54:19.042Z,25.71
2023-02-17T09:57:02.576Z,25.66
2023-02-17T10:00:03.820Z,25.63
2023-02-17T10:03:03.465Z,25.56
2023-02-17T10:06:02.948Z,25.56
2023-02-17T10:08:55.481Z,25.56
2023-02-17T10:11:48.786Z,25.52
2023-02-17T10:14:37.490Z,25.53
2023-02-17T10:17:52.783Z,25.34
2023-02-17T10:20:46.453Z,25.18
2023-02-17T10:23:36.676Z,25.22
2023-02-17T10:26:43.141Z,25.22
2023-02-17T10:29:55.532Z,25.23
2023-02-17T10:32:39.836Z,25.22
2023-02-17T10:35:39.437Z,25.18
2023-02-17T10:38:39.895Z,25.23
2023-02-17T10:41:35.482Z,25.19
2023-02-17T10:44:24.806Z,25.11
2023-02-17T10:47:13.451Z,25.02
2023-02-17T10:50:11.272Z,24.94
2023-02-17T10:53:08.400Z,24.84
2023-02-17T10:56:22.804Z,24.76
2023-02-17T10:59:16.449Z,24.65
2023-02-17T11:02:28.780Z,24.55
2023-02-17T11:05:11.388Z,24.52
2023-02-17T11:08:15.802Z,24.44
2023-02-17T11:11:11.494Z,24.38
2023-02-17T11:14:34.859Z,24.32
2023-02-17T11:17:38.498Z,24.23
2023-02-17T11:20:29.775Z,24.17
2023-02-17T11:23:32.561Z,24.08
2023-02-17T11:26:30.698Z,23.99
2023-02-17T11:29:19.552Z,23.92
2023-02-17T11:32:21.097Z,23.88
2023-02-17T11:35:08.573Z,23.74
2023-02-17T11:37:56.713Z,23.61
2023-02-17T11:40:41.467Z,23.55
2023-02-17T11:43:29.820Z,23.50
2023-02-17T11:46:27.484Z,23.43
2023-02-17T11:49:46.714Z,23.34
2023-02-17T11:52:35.392Z,23.27
2023-02-17T11:55:46.751Z,23.30
2023-02-17T11:58:35.447Z,23.23
2023-02-17T12:01:48.786Z,23.21
2023-02-17T12:04:53.562Z,23.16
2023-02-17T12:07:47.771Z,23.19
2023-02-17T12:11:10.808Z,23.08
2023-02-17T12:14:18.770Z,23.05
2023-02-17T12:17:21.439Z,23.00
2023-02-17T12:20:13.793Z,22.94
2023-02-17T12:23:23.504Z,22.88
2023-02-17T12:26:22.693Z,22.78
2023-02-17T12:29:16.418Z,22.67
2023-02-17T12:32:05.287Z,22.57
2023-02-17T12:35:06.574Z,22.50
2023-02-17T12:38:21.285Z,22.43
2023-02-17T12:41:20.419Z,22.25
2023-02-17T12:44:10.970Z,22.14
2023-02-17T12:46:59.420Z,21.99
2023-02-17T12:50:18.480Z,21.84
2023-02-17T12:53:13.770Z,21.80
2023-02-17T12:56:03.564Z,21.69
2023-02-17T12:58:51.690Z,21.64
2023-02-17T13:01:39.517Z,21.54
2023-02-17T13:04:31.105Z,21.41
2023-02-17T13:08:07.461Z,21.32
2023-02-17T13:11:07.873Z,21.24
2023-02-17T13:13:51.520Z,21.16
2023-02-17T13:16:53.843Z,21.09
2023-02-17T13:19:41.495Z,20.99
2023-02-17T13:22:30.879Z,20.94
2023-02-17T13:25:13.504Z,20.86
2023-02-17T13:28:02.942Z,20.88
2023-02-17T13:30:50.626Z,20.82
2023-02-17T13:33:39.813Z,20.83
2023-02-17T13:36:44.435Z,20.75
2023-02-17T13:39:35.821Z,20.69
2023-02-17T13:42:47.495Z,20.62
2023-02-17T13:45:35.924Z,20.55
2023-02-17T13:48:32.447Z,20.47
2023-02-17T13:51:54.310Z,20.46
2023-02-17T13:54:43.488Z,20.38
2023-02-17T13:57:38.872Z,20.38
2023-02-17T14:00:27.381Z,20.32
2023-02-17T14:03:53.962Z,20.31
2023-02-17T14:06:45.454Z,20.29
2023-02-17T14:09:43.437Z,20.20
2023-02-17T14:12:33.411Z,20.12
2023-02-17T14:15:28.052Z,20.07
2023-02-17T14:18:22.478Z,20.09
2023-02-17T14:21:16.799Z,20.03
2023-02-17T14:24:06.516Z,20.01
2023-02-17T14:26:56.930Z,19.97
2023-02-17T14:29:57.839Z,19.93
2023-02-17T14:32:45.920Z,19.92
2023-02-17T14:35:35.375Z,19.84
2023-02-17T14:38:33.176Z,19.86
2023-02-17T14:41:22.468Z,19.81
2023-02-17T14:44:04.838Z,19.79
2023-02-17T14:46:53.547Z,19.76
2023-02-17T14:49:35.808Z,19.67
2023-02-17T14:52:39.426Z,19.69
2023-02-17T14:55:30.750Z,19.67
2023-02-17T14:58:13.412Z,19.57
2023-02-17T15:01:01.832Z,19.55
2023-02-17T15:03:44.514Z,19.55
2023-02-17T15:06:45.724Z,19.51
2023-02-17T15:09:34.557Z,19.50
2023-02-17T15:12:28.112Z,19.47
2023-02-17T15:15:11.560Z,19.43
2023-02-17T15:17:59.730Z,19.39
2023-02-17T15:20:42.458Z,19.36
2023-02-17T15:23:31.698Z,19.28
2023-02-17T15:26:17.444Z,19.26
2023-02-17T15:29:06.709Z,19.26
2023-02-17T15:31:49.584Z,19.23
2023-02-17T15:34:42.745Z,19.20
2023-02-17T15:37:25.512Z,19.19
2023-02-17T15:40:08.229Z,19.14
2023-02-17T15:42:58.532Z,19.10
2023-02-17T15:45:40.691Z,19.08
2023-02-17T15:48:42.388Z,19.10
2023-02-17T15:51:38.532Z,19.05
2023-02-17T15:54:21.253Z,19.04
2023-02-17T15:57:11.423Z,19.00
2023-02-17T16:00:01.412Z,18.98
2023-02-17T16:02:44.445Z,18.89
2023-02-17T16:05:35.596Z,18.94
2023-02-17T16:08:25.453Z,18.90
2023-02-17T16:11:07.677Z,18.85
2023-02-17T16:14:00.454Z,18.83
2023-02-17T16:16:43.267Z,18.76
2023-02-17T16:19:32.370Z,18.73
2023-02-17T16:22:21.981Z,18.73
2023-02-17T16:25:04.469Z,18.69
2023-02-17T16:27:55.700Z,18.73
2023-02-17T16:30:43.457Z,18.67
2023-02-17T16:33:25.681Z,18.67
2023-02-17T16:36:14.449Z,18.65
2023-02-17T16:39:02.731Z,18.63
2023-02-17T16:41:44.439Z,18.60
2023-02-17T16:44:26.688Z,18.60
2023-02-17T16:47:15.493Z,18.55
2023-02-17T16:50:04.829Z,18.53
2023-02-17T16:53:00.389Z,18.48
2023-02-17T16:55:50.391Z,18.47
2023-02-17T16:58:41.439Z,18.50
2023-02-17T17:01:24.403Z,18.46
2023-02-17T17:04:15.394Z,18.41
2023-02-17T17:07:11.470Z,18.39
2023-02-17T17:10:15.440Z,18.34
2023-02-17T17:12:59.441Z,18.28
2023-02-17T17:15:45.060Z,18.28
2023-02-17T17:18:36.447Z,18.25
2023-02-17T17:21:27.801Z,18.23
2023-02-17T17:24:10.542Z,18.22
2023-02-17T17:26:59.841Z,18.15
2023-02-17T17:29:42.418Z,18.12
2023-02-17T17:32:24.768Z,18.12
2023-02-17T17:35:13.491Z,18.07
2023-02-17T17:38:03.652Z,17.99
2023-02-17T17:41:00.424Z,18.01
2023-02-17T17:43:50.913Z,17.96
2023-02-17T17:46:39.476Z,17.91
2023-02-17T17:49:27.742Z,17.90
2023-02-17T17:52:16.448Z,17.95
2023-02-17T17:54:58.787Z,17.90
2023-02-17T17:57:49.425Z,17.86
2023-02-17T18:00:31.817Z,17.81
2023-02-17T18:03:21.416Z,17.78
2023-02-17T18:06:03.864Z,17.76
2023-02-17T18:08:57.274Z,17.72
2023-02-17T18:11:41.819Z,17.66
2023-02-17T18:14:31.432Z,17.65
2023-02-17T18:17:15.991Z,17.63
2023-02-17T18:20:04.556Z,17.65
2023-02-17T18:22:47.795Z,17.62
2023-02-17T18:25:36.549Z,17.58
2023-02-17T18:28:18.938Z,17.53
2023-02-17T18:31:07.564Z,17.55
2023-02-17T18:33:50.942Z,17.47
2023-02-17T18:36:39.509Z,17.50
2023-02-17T18:39:21.934Z,17.45
2023-02-17T18:42:10.565Z,17.38
2023-02-17T18:44:54.851Z,17.34
2023-02-17T18:47:43.731Z,17.33
2023-02-17T18:50:34.017Z,17.35
2023-02-17T18:53:23.403Z,17.32
2023-02-17T18:56:06.053Z,17.28
2023-02-17T18:58:57.567Z,17.24
2023-02-17T19:01:44.342Z,17.22
2023-02-17T19:04:35.473Z,17.21
2023-02-17T19:07:17.845Z,17.22
2023-02-17T19:10:06.791Z,17.19
2023-02-17T19:12:48.914Z,17.14
2023-02-17T19:15:37.546Z,17.14
2023-02-17T19:18:19.775Z,17.12
2023-02-17T19:21:08.528Z,17.13
2023-02-17T19:23:52.267Z,17.10
2023-02-17T19:26:44.452Z,17.08
2023-02-17T19:29:26.837Z,17.07
2023-02-17T19:32:15.518Z,17.03
2023-02-17T19:34:57.875Z,17.02
2023-02-17T19:37:46.600Z,16.97
2023-02-17T19:40:28.844Z,16.96
2023-02-17T19:43:17.449Z,16.94
2023-02-17T19:46:00.021Z,16.93
2023-02-17T19:48:49.419Z,16.90
2023-02-17T19:51:38.252Z,16.89
2023-02-17T19:54:34.416Z,16.86
2023-02-17T19:57:24.132Z,16.82
2023-02-17T20:00:06.466Z,16.78
2023-02-17T20:02:55.920Z,16.77
2023-02-17T20:05:39.471Z,16.73
2023-02-17T20:08:28.870Z,16.70
2023-02-17T20:11:18.502Z,16.69
2023-02-17T20:14:12.038Z,16.66
2023-02-17T20:16:56.512Z,16.63
2023-02-17T20:19:46.862Z,16.59
2023-02-17T20:22:29.421Z,16.57
2023-02-17T20:25:18.848Z,16.55
2023-02-17T20:28:01.469Z,16.55
2023-02-17T20:30:49.774Z,16.52
2023-02-17T20:33:32.474Z,16.50
2023-02-17T20:36:23.342Z,16.49
2023-02-17T20:39:05.383Z,16.50
2023-02-17T20:41:54.727Z,16.45
2023-02-17T20:44:37.461Z,16.42
2023-02-17T20:47:26.826Z,16.43
2023-02-17T20:50:08.423Z,16.45
2023-02-17T20:52:57.688Z,16.42
2023-02-17T20:55:40.415Z,16.39
2023-02-17T20:58:28.627Z,16.34
2023-02-17T21:01:11.433Z,16.34
2023-02-17T21:04:00.753Z,16.37
2023-02-17T21:06:50.440Z,16.30
2023-02-17T21:09:38.669Z,16.31
2023-02-17T21:12:21.398Z,16.26
2023-02-17T21:15:09.688Z,16.27
2023-02-17T21:17:53.690Z,16.23
2023-02-17T21:20:42.698Z,16.24
2023-02-17T21:23:25.407Z,16.20
2023-02-17T21:26:12.247Z,16.20
2023-02-17T21:29:02.463Z,16.22
2023-02-17T21:31:44.674Z,16.18
2023-02-17T21:34:34.344Z,16.14
2023-02-17T21:37:16.624Z,16.16
2023-02-17T21:40:05.421Z,16.12
2023-02-17T21:43:13.273Z,16.11
2023-02-17T21:45:58.473Z,16.13
2023-02-17T21:48:47.341Z,16.09
2023-02-17T21:51:29.848Z,16.10
2023-02-17T21:54:19.411Z,16.08
2023-02-17T21:57:04.037Z,16.05
2023-02-17T21:59:53.475Z,16.03
2023-02-17T22:02:35.605Z,15.99
2023-02-17T22:05:24.418Z,15.96
2023-02-17T22:08:13.393Z,15.94
2023-02-17T22:11:02.660Z,15.91
2023-02-17T22:13:44.455Z,15.92
2023-02-17T22:16:33.693Z,15.89
2023-02-17T22:19:18.415Z,15.89
2023-02-17T22:22:07.395Z,15.89
2023-02-17T22:24:49.629Z,15.89
2023-02-17T22:27:38.444Z,15.88
2023-02-17T22:30:21.814Z,15.89
2023-02-17T22:33:10.400Z,15.89
2023-02-17T22:35:52.637Z,15.89
2023-02-17T22:38:41.398Z,15.84
2023-02-17T22:41:27.040Z,15.87
2023-02-17T22:44:16.382Z,15.88
2023-02-17T22:46:58.674Z,15.84
2023-02-17T22:49:47.387Z,15.84
2023-02-17T22:52:29.780Z,15.76
2023-02-17T22:55:18.328Z,15.73
2023-02-17T22:58:01.154Z,15.72
2023-02-17T23:00:50.494Z,15.71
2023-02-17T23:03:32.673Z,15.68
2023-02-17T23:06:28.419Z,15.67
2023-02-17T23:09:10.678Z,15.65
2023-02-17T23:12:02.338Z,15.65
2023-02-17T23:14:47.711Z,15.61
2023-02-17T23:17:56.526Z,15.56
2023-02-17T23:20:38.653Z,15.51
2023-02-17T23:23:29.335Z,15.47
2023-02-17T23:26:12.697Z,15.46
2023-02-17T23:29:01.338Z,15.48
2023-02-17T23:31:45.730Z,15.45
2023-02-17T23:34:34.422Z,15.40
2023-02-17T23:37:16.834Z,15.40
2023-02-17T23:40:05.380Z,15.34
2023-02-17T23:42:47.769Z,15.34
2023-02-17T23:45:36.420Z,15.28
2023-02-17T23:48:19.601Z,15.24
2023-02-17T23:51:11.480Z,15.21
2023-02-17T23:54:00.722Z,15.19
2023-02-17T23:56:44.357Z,15.22
2023-02-17T23:59:32.640Z,15.17
